sensor_id;sensor_type;location;lat;lon;timestamp;temperature;humidity
8420;DHT22;4247;48.550;8.822;2022-08-21T00:02:15;15.70;99.90
8420;DHT22;4247;48.550;8.822;2022-08-21T00:04:42;15.80;99.90
8420;DHT22;4247;48.550;8.822;2022-08-21T00:07:09;15.70;99.90
8420;DHT22;4247;48.550;8.822;2022-08-21T00:09:36;15.70;99.90
8420;DHT22;4247;48.550;8.822;2022-08-21T00:12:05;15.70;99.90
8420;DHT22;4247;48.550;8.822;2022-08-21T00:14:34;15.60;99.90
8420;DHT22;4247;48.550;8.822;2022-08-21T00:17:03;15.60;99.90
8420;DHT22;4247;48.550;8.822;2022-08-21T00:19:30;15.60;99.90
8420;DHT22;4247;48.550;8.822;2022-08-21T00:21:58;15.60;99.90
8420;DHT22;4247;48.550;8.822;2022-08-21T00:24:26;15.50;99.90
8420;DHT22;4247;48.550;8.822;2022-08-21T00:26:56;15.50;99.90
8420;DHT22;4247;48.550;8.822;2022-08-21T00:29:25;15.50;99.90
8420;DHT22;4247;48.550;8.822;2022-08-21T00:31:52;15.50;99.90
8420;DHT22;4247;48.550;8.822;2022-08-21T00:34:19;15.40;99.90
8420;DHT22;4247;48.550;8.822;2022-08-21T00:36:46;15.40;99.90
8420;DHT22;4247;48.550;8.822;2022-08-21T00:39:15;15.40;99.90
8420;DHT22;4247;48.550;8.822;2022-08-21T00:41:42;15.30;99.90
8420;DHT22;4247;48.550;8.822;2022-08-21T00:44:12;15.30;99.90
8420;DHT22;4247;48.550;8.822;2022-08-21T00:46:42;15.30;99.90
8420;DHT22;4247;48.550;8.822;2022-08-21T00:49:10;15.30;99.90
8420;DHT22;4247;48.550;8.822;2022-08-21T00:51:47;15.20;99.90
8420;DHT22;4247;48.550;8.822;2022-08-21T00:54:17;15.20;99.90
8420;DHT22;4247;48.550;8.822;2022-08-21T00:56:46;15.20;99.90
8420;DHT22;4247;48.550;8.822;2022-08-21T00:59:16;15.20;99.90
8420;DHT22;4247;48.550;8.822;2022-08-21T01:01:49;15.20;99.90
8420;DHT22;4247;48.550;8.822;2022-08-21T01:04:37;15.10;99.90
8420;DHT22;4247;48.550;8.822;2022-08-21T01:07:04;15.10;99.90
8420;DHT22;4247;48.550;8.822;2022-08-21T01:09:32;15.10;99.90
8420;DHT22;4247;48.550;8.822;2022-08-21T01:12:01;15.10;99.90
8420;DHT22;4247;48.550;8.822;2022-08-21T01:14:28;15.10;99.90
8420;DHT22;4247;48.550;8.822;2022-08-21T01:16:58;15.10;99.90
8420;DHT22;4247;48.550;8.822;2022-08-21T01:19:26;15.10;99.90
8420;DHT22;4247;48.550;8.822;2022-08-21T01:21:55;15.10;99.90
8420;DHT22;4247;48.550;8.822;2022-08-21T01:24:22;15.10;99.90
8420;DHT22;4247;48.550;8.822;2022-08-21T01:26:51;15.10;99.90
8420;DHT22;4247;48.550;8.822;2022-08-21T01:29:26;15.10;99.90
8420;DHT22;4247;48.550;8.822;2022-08-21T01:32:05;15.00;99.90
8420;DHT22;4247;48.550;8.822;2022-08-21T01:34:34;15.00;99.90
8420;DHT22;4247;48.550;8.822;2022-08-21T01:37:04;15.00;99.90
8420;DHT22;4247;48.550;8.822;2022-08-21T01:39:31;15.00;99.90
8420;DHT22;4247;48.550;8.822;2022-08-21T01:42:00;15.00;99.90
8420;DHT22;4247;48.550;8.822;2022-08-21T01:44:27;14.90;99.90
8420;DHT22;4247;48.550;8.822;2022-08-21T01:46:54;14.90;99.90
8420;DHT22;4247;48.550;8.822;2022-08-21T01:49:21;14.90;99.90
8420;DHT22;4247;48.550;8.822;2022-08-21T01:51:48;14.90;99.90
8420;DHT22;4247;48.550;8.822;2022-08-21T01:54:16;14.80;99.90
8420;DHT22;4247;48.550;8.822;2022-08-21T01:56:46;14.80;99.90
8420;DHT22;4247;48.550;8.822;2022-08-21T01:59:14;14.80;99.90
8420;DHT22;4247;48.550;8.822;2022-08-21T02:01:41;14.80;99.90
8420;DHT22;4247;48.550;8.822;2022-08-21T02:04:10;14.70;99.90
8420;DHT22;4247;48.550;8.822;2022-08-21T02:06:38;14.70;99.90
8420;DHT22;4247;48.550;8.822;2022-08-21T02:09:07;14.70;99.90
8420;DHT22;4247;48.550;8.822;2022-08-21T02:11:36;14.70;99.90
8420;DHT22;4247;48.550;8.822;2022-08-21T02:14:05;14.70;99.90
8420;DHT22;4247;48.550;8.822;2022-08-21T02:16:35;14.60;99.90
8420;DHT22;4247;48.550;8.822;2022-08-21T02:19:02;14.60;99.90
8420;DHT22;4247;48.550;8.822;2022-08-21T02:21:29;14.60;99.90
8420;DHT22;4247;48.550;8.822;2022-08-21T02:23:56;14.60;99.90
8420;DHT22;4247;48.550;8.822;2022-08-21T02:26:24;14.60;99.90
8420;DHT22;4247;48.550;8.822;2022-08-21T02:28:53;14.50;99.90
8420;DHT22;4247;48.550;8.822;2022-08-21T02:31:20;14.50;99.90
8420;DHT22;4247;48.550;8.822;2022-08-21T02:33:47;14.50;99.90
8420;DHT22;4247;48.550;8.822;2022-08-21T02:36:14;14.50;99.90
8420;DHT22;4247;48.550;8.822;2022-08-21T02:38:42;14.40;99.90
8420;DHT22;4247;48.550;8.822;2022-08-21T02:41:12;14.40;99.90
8420;DHT22;4247;48.550;8.822;2022-08-21T02:43:40;14.40;99.90
8420;DHT22;4247;48.550;8.822;2022-08-21T02:46:10;14.30;99.90
8420;DHT22;4247;48.550;8.822;2022-08-21T02:48:37;14.30;99.90
8420;DHT22;4247;48.550;8.822;2022-08-21T02:51:07;14.30;99.90
8420;DHT22;4247;48.550;8.822;2022-08-21T02:53:35;14.20;99.90
8420;DHT22;4247;48.550;8.822;2022-08-21T02:56:05;14.20;99.90
8420;DHT22;4247;48.550;8.822;2022-08-21T02:58:35;14.20;99.90
8420;DHT22;4247;48.550;8.822;2022-08-21T03:01:02;14.20;99.90
8420;DHT22;4247;48.550;8.822;2022-08-21T03:03:30;14.10;99.90
8420;DHT22;4247;48.550;8.822;2022-08-21T03:06:00;14.10;99.90
8420;DHT22;4247;48.550;8.822;2022-08-21T03:08:27;14.10;99.90
8420;DHT22;4247;48.550;8.822;2022-08-21T03:10:54;14.10;99.90
8420;DHT22;4247;48.550;8.822;2022-08-21T03:13:21;14.00;99.90
8420;DHT22;4247;48.550;8.822;2022-08-21T03:15:49;14.00;99.90
8420;DHT22;4247;48.550;8.822;2022-08-21T03:18:16;14.00;99.90
8420;DHT22;4247;48.550;8.822;2022-08-21T03:20:50;14.00;99.90
8420;DHT22;4247;48.550;8.822;2022-08-21T03:23:18;13.90;99.90
8420;DHT22;4247;48.550;8.822;2022-08-21T03:25:46;13.90;99.90
8420;DHT22;4247;48.550;8.822;2022-08-21T03:28:16;13.90;99.90
8420;DHT22;4247;48.550;8.822;2022-08-21T03:30:43;13.90;99.90
8420;DHT22;4247;48.550;8.822;2022-08-21T03:33:12;13.90;99.90
8420;DHT22;4247;48.550;8.822;2022-08-21T03:35:39;13.90;99.90
8420;DHT22;4247;48.550;8.822;2022-08-21T03:38:09;13.90;99.90
8420;DHT22;4247;48.550;8.822;2022-08-21T03:40:38;13.90;99.90
8420;DHT22;4247;48.550;8.822;2022-08-21T03:43:06;13.80;99.90
8420;DHT22;4247;48.550;8.822;2022-08-21T03:45:34;13.80;99.90
8420;DHT22;4247;48.550;8.822;2022-08-21T03:48:03;13.80;99.90
8420;DHT22;4247;48.550;8.822;2022-08-21T03:50:33;13.80;99.90
8420;DHT22;4247;48.550;8.822;2022-08-21T03:53:00;13.70;99.90
8420;DHT22;4247;48.550;8.822;2022-08-21T03:55:29;13.70;99.90
8420;DHT22;4247;48.550;8.822;2022-08-21T03:57:56;13.70;99.90
8420;DHT22;4247;48.550;8.822;2022-08-21T04:00:24;13.60;99.90
8420;DHT22;4247;48.550;8.822;2022-08-21T04:02:51;13.60;99.90
8420;DHT22;4247;48.550;8.822;2022-08-21T04:05:19;13.60;99.90
8420;DHT22;4247;48.550;8.822;2022-08-21T04:07:55;13.60;99.90
8420;DHT22;4247;48.550;8.822;2022-08-21T04:10:23;13.50;99.90
8420;DHT22;4247;48.550;8.822;2022-08-21T04:12:52;13.60;99.90
8420;DHT22;4247;48.550;8.822;2022-08-21T04:15:20;13.50;99.90
8420;DHT22;4247;48.550;8.822;2022-08-21T04:17:47;13.50;99.90
8420;DHT22;4247;48.550;8.822;2022-08-21T04:20:15;13.50;99.90
8420;DHT22;4247;48.550;8.822;2022-08-21T04:22:42;13.40;99.90
8420;DHT22;4247;48.550;8.822;2022-08-21T04:25:10;13.40;99.90
8420;DHT22;4247;48.550;8.822;2022-08-21T04:27:37;13.40;99.90
8420;DHT22;4247;48.550;8.822;2022-08-21T04:30:08;13.40;99.90
8420;DHT22;4247;48.550;8.822;2022-08-21T04:32:36;13.40;99.90
8420;DHT22;4247;48.550;8.822;2022-08-21T04:35:06;13.40;99.90
8420;DHT22;4247;48.550;8.822;2022-08-21T04:37:35;13.40;99.90
8420;DHT22;4247;48.550;8.822;2022-08-21T04:40:02;13.40;99.90
8420;DHT22;4247;48.550;8.822;2022-08-21T04:42:29;13.40;99.90
8420;DHT22;4247;48.550;8.822;2022-08-21T04:44:56;13.40;99.90
8420;DHT22;4247;48.550;8.822;2022-08-21T04:47:25;13.40;99.90
8420;DHT22;4247;48.550;8.822;2022-08-21T04:49:52;13.40;99.90
8420;DHT22;4247;48.550;8.822;2022-08-21T04:52:21;13.40;99.90
8420;DHT22;4247;48.550;8.822;2022-08-21T04:54:51;13.40;99.90
8420;DHT22;4247;48.550;8.822;2022-08-21T04:57:19;13.40;99.90
8420;DHT22;4247;48.550;8.822;2022-08-21T04:59:48;13.50;99.90
8420;DHT22;4247;48.550;8.822;2022-08-21T05:02:16;13.50;99.90
8420;DHT22;4247;48.550;8.822;2022-08-21T05:04:47;13.60;99.90
8420;DHT22;4247;48.550;8.822;2022-08-21T05:07:19;13.60;99.90
8420;DHT22;4247;48.550;8.822;2022-08-21T05:09:47;13.70;99.90
8420;DHT22;4247;48.550;8.822;2022-08-21T05:12:14;13.70;99.90
8420;DHT22;4247;48.550;8.822;2022-08-21T05:14:42;13.80;99.90
8420;DHT22;4247;48.550;8.822;2022-08-21T05:17:16;13.80;99.90
8420;DHT22;4247;48.550;8.822;2022-08-21T05:19:44;13.80;99.90
8420;DHT22;4247;48.550;8.822;2022-08-21T05:22:11;13.90;99.90
8420;DHT22;4247;48.550;8.822;2022-08-21T05:24:45;14.00;99.90
8420;DHT22;4247;48.550;8.822;2022-08-21T05:27:12;14.00;99.90
8420;DHT22;4247;48.550;8.822;2022-08-21T05:29:38;14.10;99.90
8420;DHT22;4247;48.550;8.822;2022-08-21T05:32:09;14.20;99.90
8420;DHT22;4247;48.550;8.822;2022-08-21T05:34:36;14.30;99.90
8420;DHT22;4247;48.550;8.822;2022-08-21T05:37:06;14.40;99.90
8420;DHT22;4247;48.550;8.822;2022-08-21T05:39:33;14.50;99.90
8420;DHT22;4247;48.550;8.822;2022-08-21T05:42:00;14.60;99.90
8420;DHT22;4247;48.550;8.822;2022-08-21T05:44:27;14.70;99.90
8420;DHT22;4247;48.550;8.822;2022-08-21T05:46:54;14.70;99.90
8420;DHT22;4247;48.550;8.822;2022-08-21T05:49:21;14.80;99.90
8420;DHT22;4247;48.550;8.822;2022-08-21T05:51:47;14.90;99.90
8420;DHT22;4247;48.550;8.822;2022-08-21T05:54:16;14.90;99.90
8420;DHT22;4247;48.550;8.822;2022-08-21T05:56:43;15.00;99.90
8420;DHT22;4247;48.550;8.822;2022-08-21T05:59:10;15.10;99.90
8420;DHT22;4247;48.550;8.822;2022-08-21T06:01:38;15.20;99.90
8420;DHT22;4247;48.550;8.822;2022-08-21T06:04:05;15.30;99.90
8420;DHT22;4247;48.550;8.822;2022-08-21T06:06:38;15.40;99.90
8420;DHT22;4247;48.550;8.822;2022-08-21T06:09:05;15.50;99.90
8420;DHT22;4247;48.550;8.822;2022-08-21T06:11:34;15.50;99.90
8420;DHT22;4247;48.550;8.822;2022-08-21T06:14:01;15.60;99.90
8420;DHT22;4247;48.550;8.822;2022-08-21T06:16:29;15.60;99.90
8420;DHT22;4247;48.550;8.822;2022-08-21T06:18:56;15.70;99.90
8420;DHT22;4247;48.550;8.822;2022-08-21T06:21:23;15.80;99.90
8420;DHT22;4247;48.550;8.822;2022-08-21T06:23:50;15.90;99.90
8420;DHT22;4247;48.550;8.822;2022-08-21T06:26:16;15.90;99.90
8420;DHT22;4247;48.550;8.822;2022-08-21T06:28:48;16.00;99.90
8420;DHT22;4247;48.550;8.822;2022-08-21T06:31:17;16.00;99.90
8420;DHT22;4247;48.550;8.822;2022-08-21T06:33:44;16.10;99.90
8420;DHT22;4247;48.550;8.822;2022-08-21T06:36:11;16.20;99.90
8420;DHT22;4247;48.550;8.822;2022-08-21T06:38:39;16.20;99.90
8420;DHT22;4247;48.550;8.822;2022-08-21T06:41:09;16.30;99.90
8420;DHT22;4247;48.550;8.822;2022-08-21T06:43:36;16.40;99.90
8420;DHT22;4247;48.550;8.822;2022-08-21T06:46:04;16.50;99.90
8420;DHT22;4247;48.550;8.822;2022-08-21T06:48:33;16.50;99.90
8420;DHT22;4247;48.550;8.822;2022-08-21T06:51:00;16.60;99.90
8420;DHT22;4247;48.550;8.822;2022-08-21T06:53:27;16.70;99.90
8420;DHT22;4247;48.550;8.822;2022-08-21T06:55:54;16.70;99.90
8420;DHT22;4247;48.550;8.822;2022-08-21T06:58:21;16.80;99.90
8420;DHT22;4247;48.550;8.822;2022-08-21T07:00:49;16.90;99.90
8420;DHT22;4247;48.550;8.822;2022-08-21T07:03:19;16.90;99.90
8420;DHT22;4247;48.550;8.822;2022-08-21T07:05:48;17.00;99.90
8420;DHT22;4247;48.550;8.822;2022-08-21T07:08:15;17.20;99.90
8420;DHT22;4247;48.550;8.822;2022-08-21T07:10:43;17.20;99.90
8420;DHT22;4247;48.550;8.822;2022-08-21T07:13:16;17.30;99.90
8420;DHT22;4247;48.550;8.822;2022-08-21T07:15:43;17.40;99.90
8420;DHT22;4247;48.550;8.822;2022-08-21T07:18:11;17.50;99.90
8420;DHT22;4247;48.550;8.822;2022-08-21T07:20:40;17.60;99.90
8420;DHT22;4247;48.550;8.822;2022-08-21T07:23:11;17.70;99.90
8420;DHT22;4247;48.550;8.822;2022-08-21T07:25:38;17.80;99.90
8420;DHT22;4247;48.550;8.822;2022-08-21T07:28:06;18.00;99.90
8420;DHT22;4247;48.550;8.822;2022-08-21T07:30:32;18.10;99.90
8420;DHT22;4247;48.550;8.822;2022-08-21T07:33:00;18.20;99.90
8420;DHT22;4247;48.550;8.822;2022-08-21T07:35:29;18.30;99.90
8420;DHT22;4247;48.550;8.822;2022-08-21T07:38:00;18.40;99.90
8420;DHT22;4247;48.550;8.822;2022-08-21T07:40:27;18.50;99.90
8420;DHT22;4247;48.550;8.822;2022-08-21T07:42:53;18.70;99.90
8420;DHT22;4247;48.550;8.822;2022-08-21T07:45:22;18.80;99.90
8420;DHT22;4247;48.550;8.822;2022-08-21T07:47:53;18.90;99.90
8420;DHT22;4247;48.550;8.822;2022-08-21T07:50:19;19.10;99.90
8420;DHT22;4247;48.550;8.822;2022-08-21T07:52:47;19.20;99.90
8420;DHT22;4247;48.550;8.822;2022-08-21T07:55:17;19.40;99.90
8420;DHT22;4247;48.550;8.822;2022-08-21T07:57:44;19.50;99.90
8420;DHT22;4247;48.550;8.822;2022-08-21T08:00:14;19.70;99.90
8420;DHT22;4247;48.550;8.822;2022-08-21T08:02:44;19.80;99.90
8420;DHT22;4247;48.550;8.822;2022-08-21T08:05:12;20.00;99.90
8420;DHT22;4247;48.550;8.822;2022-08-21T08:07:39;20.10;99.90
8420;DHT22;4247;48.550;8.822;2022-08-21T08:10:09;20.20;99.90
8420;DHT22;4247;48.550;8.822;2022-08-21T08:12:40;20.30;99.90
8420;DHT22;4247;48.550;8.822;2022-08-21T08:15:10;20.50;99.90
8420;DHT22;4247;48.550;8.822;2022-08-21T08:17:37;20.70;99.90
8420;DHT22;4247;48.550;8.822;2022-08-21T08:20:05;20.80;99.90
8420;DHT22;4247;48.550;8.822;2022-08-21T08:22:34;20.90;99.90
8420;DHT22;4247;48.550;8.822;2022-08-21T08:25:02;21.00;99.50
8420;DHT22;4247;48.550;8.822;2022-08-21T08:27:29;21.10;99.00
8420;DHT22;4247;48.550;8.822;2022-08-21T08:29:58;21.20;99.60
8420;DHT22;4247;48.550;8.822;2022-08-21T08:32:25;21.30;98.60
8420;DHT22;4247;48.550;8.822;2022-08-21T08:34:52;21.40;98.40
8420;DHT22;4247;48.550;8.822;2022-08-21T08:37:20;21.50;98.60
8420;DHT22;4247;48.550;8.822;2022-08-21T08:39:47;21.60;97.90
8420;DHT22;4247;48.550;8.822;2022-08-21T08:42:17;21.60;98.30
8420;DHT22;4247;48.550;8.822;2022-08-21T08:44:47;21.80;97.80
8420;DHT22;4247;48.550;8.822;2022-08-21T08:47:16;21.90;97.40
8420;DHT22;4247;48.550;8.822;2022-08-21T08:49:49;22.00;97.10
8420;DHT22;4247;48.550;8.822;2022-08-21T08:52:27;22.00;96.50
8420;DHT22;4247;48.550;8.822;2022-08-21T08:55:01;22.10;96.00
8420;DHT22;4247;48.550;8.822;2022-08-21T08:57:28;22.20;95.80
8420;DHT22;4247;48.550;8.822;2022-08-21T08:59:58;22.30;96.70
8420;DHT22;4247;48.550;8.822;2022-08-21T09:02:27;22.30;95.00
8420;DHT22;4247;48.550;8.822;2022-08-21T09:04:54;22.30;94.50
8420;DHT22;4247;48.550;8.822;2022-08-21T09:07:30;22.40;94.00
8420;DHT22;4247;48.550;8.822;2022-08-21T09:10:12;22.40;94.50
8420;DHT22;4247;48.550;8.822;2022-08-21T09:12:48;22.40;93.00
8420;DHT22;4247;48.550;8.822;2022-08-21T09:15:25;22.50;92.10
8420;DHT22;4247;48.550;8.822;2022-08-21T09:18:18;22.50;92.40
8420;DHT22;4247;48.550;8.822;2022-08-21T09:20:57;22.60;92.80
8420;DHT22;4247;48.550;8.822;2022-08-21T09:23:34;22.70;92.10
8420;DHT22;4247;48.550;8.822;2022-08-21T09:26:07;22.80;92.40
8420;DHT22;4247;48.550;8.822;2022-08-21T09:28:39;22.80;92.70
8420;DHT22;4247;48.550;8.822;2022-08-21T09:31:08;22.80;89.00
8420;DHT22;4247;48.550;8.822;2022-08-21T09:33:38;22.80;91.50
8420;DHT22;4247;48.550;8.822;2022-08-21T09:36:05;22.80;90.30
8420;DHT22;4247;48.550;8.822;2022-08-21T09:38:35;22.90;90.60
8420;DHT22;4247;48.550;8.822;2022-08-21T09:41:09;23.00;90.50
8420;DHT22;4247;48.550;8.822;2022-08-21T09:43:37;23.10;91.20
8420;DHT22;4247;48.550;8.822;2022-08-21T09:46:08;23.20;91.00
8420;DHT22;4247;48.550;8.822;2022-08-21T09:48:43;23.20;92.60
8420;DHT22;4247;48.550;8.822;2022-08-21T09:51:15;23.30;91.90
8420;DHT22;4247;48.550;8.822;2022-08-21T09:53:45;23.30;92.10
8420;DHT22;4247;48.550;8.822;2022-08-21T09:56:19;23.40;91.70
8420;DHT22;4247;48.550;8.822;2022-08-21T09:59:14;23.40;91.40
8420;DHT22;4247;48.550;8.822;2022-08-21T10:01:43;23.40;89.10
8420;DHT22;4247;48.550;8.822;2022-08-21T10:04:13;23.30;90.00
8420;DHT22;4247;48.550;8.822;2022-08-21T10:06:40;23.30;90.00
8420;DHT22;4247;48.550;8.822;2022-08-21T10:09:09;23.30;89.60
8420;DHT22;4247;48.550;8.822;2022-08-21T10:11:37;23.30;89.00
8420;DHT22;4247;48.550;8.822;2022-08-21T10:14:12;23.20;87.80
8420;DHT22;4247;48.550;8.822;2022-08-21T10:16:52;23.30;89.00
8420;DHT22;4247;48.550;8.822;2022-08-21T10:19:34;23.30;88.90
8420;DHT22;4247;48.550;8.822;2022-08-21T10:22:14;23.30;89.40
8420;DHT22;4247;48.550;8.822;2022-08-21T10:24:49;23.30;89.40
8420;DHT22;4247;48.550;8.822;2022-08-21T10:27:25;23.40;88.80
8420;DHT22;4247;48.550;8.822;2022-08-21T10:29:58;23.30;88.00
8420;DHT22;4247;48.550;8.822;2022-08-21T10:33:01;23.30;90.10
8420;DHT22;4247;48.550;8.822;2022-08-21T10:35:35;23.30;87.50
8420;DHT22;4247;48.550;8.822;2022-08-21T10:38:20;23.40;89.50
8420;DHT22;4247;48.550;8.822;2022-08-21T10:40:59;23.40;86.50
8420;DHT22;4247;48.550;8.822;2022-08-21T10:43:43;23.40;89.50
8420;DHT22;4247;48.550;8.822;2022-08-21T10:46:15;23.40;86.20
8420;DHT22;4247;48.550;8.822;2022-08-21T10:48:48;23.30;85.20
8420;DHT22;4247;48.550;8.822;2022-08-21T10:51:23;23.40;89.00
8420;DHT22;4247;48.550;8.822;2022-08-21T10:53:59;23.40;85.30
8420;DHT22;4247;48.550;8.822;2022-08-21T10:56:38;23.40;86.30
8420;DHT22;4247;48.550;8.822;2022-08-21T10:59:25;23.40;89.30
8420;DHT22;4247;48.550;8.822;2022-08-21T11:01:56;23.40;85.50
8420;DHT22;4247;48.550;8.822;2022-08-21T11:04:30;23.30;83.30
8420;DHT22;4247;48.550;8.822;2022-08-21T11:07:03;23.30;83.50
8420;DHT22;4247;48.550;8.822;2022-08-21T11:09:31;23.20;86.30
8420;DHT22;4247;48.550;8.822;2022-08-21T11:12:05;23.20;84.80
8420;DHT22;4247;48.550;8.822;2022-08-21T11:14:41;23.20;84.60
8420;DHT22;4247;48.550;8.822;2022-08-21T11:17:12;23.20;87.50
8420;DHT22;4247;48.550;8.822;2022-08-21T11:19:45;23.30;86.50
8420;DHT22;4247;48.550;8.822;2022-08-21T11:22:18;23.40;86.20
8420;DHT22;4247;48.550;8.822;2022-08-21T11:24:55;23.40;85.40
8420;DHT22;4247;48.550;8.822;2022-08-21T11:27:26;23.40;83.70
8420;DHT22;4247;48.550;8.822;2022-08-21T11:29:56;23.30;82.30
8420;DHT22;4247;48.550;8.822;2022-08-21T11:32:46;23.30;84.50
8420;DHT22;4247;48.550;8.822;2022-08-21T11:35:28;23.40;84.40
8420;DHT22;4247;48.550;8.822;2022-08-21T11:38:13;23.40;85.20
8420;DHT22;4247;48.550;8.822;2022-08-21T11:40:50;23.40;82.70
8420;DHT22;4247;48.550;8.822;2022-08-21T11:43:25;23.60;84.60
8420;DHT22;4247;48.550;8.822;2022-08-21T11:45:58;23.60;82.00
8420;DHT22;4247;48.550;8.822;2022-08-21T11:48:35;23.60;83.00
8420;DHT22;4247;48.550;8.822;2022-08-21T11:51:09;23.50;81.00
8420;DHT22;4247;48.550;8.822;2022-08-21T11:53:43;23.50;82.70
8420;DHT22;4247;48.550;8.822;2022-08-21T11:56:21;23.50;83.40
8420;DHT22;4247;48.550;8.822;2022-08-21T11:58:53;23.50;80.30
8420;DHT22;4247;48.550;8.822;2022-08-21T12:01:43;23.50;79.10
8420;DHT22;4247;48.550;8.822;2022-08-21T12:04:19;23.40;79.80
8420;DHT22;4247;48.550;8.822;2022-08-21T12:06:54;23.50;81.10
8420;DHT22;4247;48.550;8.822;2022-08-21T12:09:53;23.60;81.10
8420;DHT22;4247;48.550;8.822;2022-08-21T12:12:25;23.60;80.80
8420;DHT22;4247;48.550;8.822;2022-08-21T12:15:13;23.70;78.40
8420;DHT22;4247;48.550;8.822;2022-08-21T12:17:55;23.60;80.20
8420;DHT22;4247;48.550;8.822;2022-08-21T12:20:34;23.60;79.30
8420;DHT22;4247;48.550;8.822;2022-08-21T12:23:14;23.60;78.70
8420;DHT22;4247;48.550;8.822;2022-08-21T12:25:47;23.50;75.10
8420;DHT22;4247;48.550;8.822;2022-08-21T12:28:21;23.40;69.70
8420;DHT22;4247;48.550;8.822;2022-08-21T12:30:49;23.40;75.90
8420;DHT22;4247;48.550;8.822;2022-08-21T12:33:23;23.40;74.80
8420;DHT22;4247;48.550;8.822;2022-08-21T12:36:09;23.50;78.10
8420;DHT22;4247;48.550;8.822;2022-08-21T12:38:45;23.60;75.30
8420;DHT22;4247;48.550;8.822;2022-08-21T12:41:19;23.60;78.30
8420;DHT22;4247;48.550;8.822;2022-08-21T12:43:53;23.70;78.80
8420;DHT22;4247;48.550;8.822;2022-08-21T12:46:28;23.70;74.40
8420;DHT22;4247;48.550;8.822;2022-08-21T12:48:58;23.60;72.10
8420;DHT22;4247;48.550;8.822;2022-08-21T12:51:31;23.70;72.30
8420;DHT22;4247;48.550;8.822;2022-08-21T12:54:00;23.80;73.40
8420;DHT22;4247;48.550;8.822;2022-08-21T12:56:55;23.80;75.20
8420;DHT22;4247;48.550;8.822;2022-08-21T12:59:22;23.80;72.10
8420;DHT22;4247;48.550;8.822;2022-08-21T13:01:51;23.80;72.40
8420;DHT22;4247;48.550;8.822;2022-08-21T13:04:22;23.80;74.10
8420;DHT22;4247;48.550;8.822;2022-08-21T13:06:54;23.80;71.80
8420;DHT22;4247;48.550;8.822;2022-08-21T13:09:27;23.80;70.20
8420;DHT22;4247;48.550;8.822;2022-08-21T13:11:56;23.80;73.90
8420;DHT22;4247;48.550;8.822;2022-08-21T13:14:28;23.80;70.00
8420;DHT22;4247;48.550;8.822;2022-08-21T13:16:58;23.90;74.90
8420;DHT22;4247;48.550;8.822;2022-08-21T13:19:26;23.90;71.60
8420;DHT22;4247;48.550;8.822;2022-08-21T13:21:55;24.00;71.40
8420;DHT22;4247;48.550;8.822;2022-08-21T13:24:24;23.90;74.80
8420;DHT22;4247;48.550;8.822;2022-08-21T13:26:52;24.00;75.00
8420;DHT22;4247;48.550;8.822;2022-08-21T13:29:23;24.00;72.00
8420;DHT22;4247;48.550;8.822;2022-08-21T13:31:55;24.00;72.00
8420;DHT22;4247;48.550;8.822;2022-08-21T13:34:25;24.00;68.40
8420;DHT22;4247;48.550;8.822;2022-08-21T13:36:59;24.10;70.60
8420;DHT22;4247;48.550;8.822;2022-08-21T13:39:27;24.10;68.80
8420;DHT22;4247;48.550;8.822;2022-08-21T13:41:55;24.10;67.70
8420;DHT22;4247;48.550;8.822;2022-08-21T13:44:34;24.10;67.30
8420;DHT22;4247;48.550;8.822;2022-08-21T13:47:03;24.20;68.00
8420;DHT22;4247;48.550;8.822;2022-08-21T13:49:33;24.20;71.70
8420;DHT22;4247;48.550;8.822;2022-08-21T13:52:01;24.30;70.40
8420;DHT22;4247;48.550;8.822;2022-08-21T13:54:34;24.40;70.60
8420;DHT22;4247;48.550;8.822;2022-08-21T13:57:01;24.40;71.40
8420;DHT22;4247;48.550;8.822;2022-08-21T13:59:31;24.50;68.60
8420;DHT22;4247;48.550;8.822;2022-08-21T14:02:00;24.50;69.60
8420;DHT22;4247;48.550;8.822;2022-08-21T14:04:34;24.60;69.20
8420;DHT22;4247;48.550;8.822;2022-08-21T14:07:01;24.60;71.60
8420;DHT22;4247;48.550;8.822;2022-08-21T14:09:35;24.60;66.30
8420;DHT22;4247;48.550;8.822;2022-08-21T14:12:16;24.70;68.40
8420;DHT22;4247;48.550;8.822;2022-08-21T14:14:45;24.70;67.80
8420;DHT22;4247;48.550;8.822;2022-08-21T14:17:26;24.80;69.10
8420;DHT22;4247;48.550;8.822;2022-08-21T14:19:53;24.80;68.00
8420;DHT22;4247;48.550;8.822;2022-08-21T14:22:28;24.80;71.30
8420;DHT22;4247;48.550;8.822;2022-08-21T14:25:00;24.80;69.00
8420;DHT22;4247;48.550;8.822;2022-08-21T14:27:30;24.70;67.50
8420;DHT22;4247;48.550;8.822;2022-08-21T14:30:03;24.70;70.30
8420;DHT22;4247;48.550;8.822;2022-08-21T14:32:37;24.70;70.30
8420;DHT22;4247;48.550;8.822;2022-08-21T14:35:04;24.70;68.20
8420;DHT22;4247;48.550;8.822;2022-08-21T14:37:44;24.70;67.80
8420;DHT22;4247;48.550;8.822;2022-08-21T14:40:11;24.70;68.30
8420;DHT22;4247;48.550;8.822;2022-08-21T14:42:54;24.70;67.90
8420;DHT22;4247;48.550;8.822;2022-08-21T14:45:26;24.60;66.80
8420;DHT22;4247;48.550;8.822;2022-08-21T14:47:57;24.60;69.50
8420;DHT22;4247;48.550;8.822;2022-08-21T14:50:25;24.50;67.30
8420;DHT22;4247;48.550;8.822;2022-08-21T14:52:52;24.50;66.90
8420;DHT22;4247;48.550;8.822;2022-08-21T14:55:19;24.50;67.30
8420;DHT22;4247;48.550;8.822;2022-08-21T14:57:48;24.50;67.60
8420;DHT22;4247;48.550;8.822;2022-08-21T15:00:30;24.50;68.40
8420;DHT22;4247;48.550;8.822;2022-08-21T15:02:57;24.50;68.20
8420;DHT22;4247;48.550;8.822;2022-08-21T15:05:24;24.50;70.10
8420;DHT22;4247;48.550;8.822;2022-08-21T15:07:50;24.50;74.00
8420;DHT22;4247;48.550;8.822;2022-08-21T15:10:17;24.50;69.10
8420;DHT22;4247;48.550;8.822;2022-08-21T15:12:45;24.60;68.70
8420;DHT22;4247;48.550;8.822;2022-08-21T15:15:11;24.60;67.30
8420;DHT22;4247;48.550;8.822;2022-08-21T15:17:40;24.60;66.70
8420;DHT22;4247;48.550;8.822;2022-08-21T15:20:08;24.60;66.80
8420;DHT22;4247;48.550;8.822;2022-08-21T15:22:35;24.70;67.00
8420;DHT22;4247;48.550;8.822;2022-08-21T15:25:03;24.70;68.30
8420;DHT22;4247;48.550;8.822;2022-08-21T15:27:30;24.70;65.20
8420;DHT22;4247;48.550;8.822;2022-08-21T15:29:57;24.80;66.80
8420;DHT22;4247;48.550;8.822;2022-08-21T15:32:26;24.80;66.20
8420;DHT22;4247;48.550;8.822;2022-08-21T15:34:57;24.80;66.70
8420;DHT22;4247;48.550;8.822;2022-08-21T15:37:25;24.80;68.20
8420;DHT22;4247;48.550;8.822;2022-08-21T15:39:52;24.80;66.80
8420;DHT22;4247;48.550;8.822;2022-08-21T15:42:19;24.80;68.70
8420;DHT22;4247;48.550;8.822;2022-08-21T15:44:47;24.70;68.80
8420;DHT22;4247;48.550;8.822;2022-08-21T15:47:17;24.70;69.90
8420;DHT22;4247;48.550;8.822;2022-08-21T15:49:44;24.70;68.70
8420;DHT22;4247;48.550;8.822;2022-08-21T15:52:17;24.70;68.90
8420;DHT22;4247;48.550;8.822;2022-08-21T15:54:46;24.70;69.10
8420;DHT22;4247;48.550;8.822;2022-08-21T15:57:15;24.70;70.70
8420;DHT22;4247;48.550;8.822;2022-08-21T15:59:45;24.60;69.00
8420;DHT22;4247;48.550;8.822;2022-08-21T16:02:15;24.60;69.20
8420;DHT22;4247;48.550;8.822;2022-08-21T16:04:42;24.60;69.00
8420;DHT22;4247;48.550;8.822;2022-08-21T16:07:09;24.50;68.90
8420;DHT22;4247;48.550;8.822;2022-08-21T16:09:37;24.50;70.10
8420;DHT22;4247;48.550;8.822;2022-08-21T16:12:05;24.40;69.10
8420;DHT22;4247;48.550;8.822;2022-08-21T16:14:34;24.40;69.10
8420;DHT22;4247;48.550;8.822;2022-08-21T16:17:03;24.30;68.60
8420;DHT22;4247;48.550;8.822;2022-08-21T16:19:30;24.30;71.10
8420;DHT22;4247;48.550;8.822;2022-08-21T16:21:57;24.20;72.00
8420;DHT22;4247;48.550;8.822;2022-08-21T16:24:30;24.20;70.30